createdAt,value
2018-01-03T00:00:43.175Z,4.17
2018-01-03T00:03:11.430Z,4.57
2018-01-03T00:05:39.722Z,4.23
2018-01-03T00:08:08.051Z,5.50
2018-01-03T00:10:36.349Z,4.63
2018-01-03T00:13:05.415Z,7.37
2018-01-03T00:15:34.117Z,11.30
2018-01-03T00:18:03.697Z,11.17
2018-01-03T00:20:33.167Z,12.93
2018-01-03T00:23:02.723Z,7.33
2018-01-03T00:25:32.011Z,7.37
2018-01-03T00:28:01.626Z,19.43
2018-01-03T00:30:31.111Z,13.40
2018-01-03T00:33:00.027Z,6.70
2018-01-03T00:35:29.012Z,4.80
2018-01-03T00:37:57.350Z,9.13
2018-01-03T00:40:26.336Z,17.97
2018-01-03T00:42:54.583Z,11.13
2018-01-03T00:45:22.944Z,5.50
2018-01-03T00:47:51.176Z,8.17
2018-01-03T00:50:20.766Z,7.10
2018-01-03T00:52:50.254Z,5.60
2018-01-03T00:55:19.891Z,5.90
2018-01-03T00:57:48.120Z,8.70
2018-01-03T01:00:16.404Z,11.70
2018-01-03T01:02:46.016Z,11.07
2018-01-03T01:05:14.884Z,6.43
2018-01-03T01:07:44.661Z,6.10
2018-01-03T01:10:13.671Z,7.50
2018-01-03T01:12:43.252Z,4.70
2018-01-03T01:15:12.159Z,4.90
2018-01-03T01:17:41.759Z,4.60
2018-01-03T01:20:10.276Z,6.17
2018-01-03T01:22:38.540Z,5.40
2018-01-03T01:25:06.821Z,4.67
2018-01-03T01:27:35.028Z,5.27
2018-01-03T01:30:04.656Z,5.23
2018-01-03T01:32:33.538Z,13.60
2018-01-03T01:35:01.768Z,8.50
2018-01-03T01:37:30.044Z,6.10
2018-01-03T01:39:59.031Z,8.27
2018-01-03T01:42:27.263Z,5.47
2018-01-03T01:44:55.555Z,6.70
2018-01-03T01:47:25.292Z,9.40
2018-01-03T01:49:53.540Z,14.50
2018-01-03T01:52:21.896Z,16.90
2018-01-03T01:54:50.128Z,12.00
2018-01-03T01:57:18.829Z,5.30
2018-01-03T01:59:48.033Z,7.33
2018-01-03T02:02:16.264Z,11.20
2018-01-03T02:04:44.523Z,13.60
2018-01-03T02:07:12.789Z,14.30
2018-01-03T02:09:41.024Z,14.00
2018-01-03T02:12:09.263Z,16.27
2018-01-03T02:14:37.581Z,14.47
2018-01-03T02:17:07.337Z,8.63
2018-01-03T02:19:36.709Z,6.83
2018-01-03T02:22:06.599Z,13.50
2018-01-03T02:24:36.099Z,15.10
2018-01-03T02:27:05.391Z,8.17
2018-01-03T02:29:33.688Z,20.83
2018-01-03T02:32:03.454Z,22.67
2018-01-03T02:34:31.699Z,12.67
2018-01-03T02:37:01.335Z,13.77
2018-01-03T02:39:29.845Z,23.90
2018-01-03T02:41:59.440Z,19.17
2018-01-03T02:44:28.773Z,22.00
2018-01-03T02:46:56.992Z,25.67
2018-01-03T02:49:26.368Z,13.03
2018-01-03T02:51:54.641Z,22.50
2018-01-03T02:54:24.228Z,27.73
2018-01-03T02:56:52.783Z,16.60
2018-01-03T02:59:22.426Z,13.53
2018-01-03T03:01:50.933Z,13.17
2018-01-03T03:04:19.173Z,21.50
2018-01-03T03:06:48.819Z,14.93
2018-01-03T03:09:16.924Z,22.20
2018-01-03T03:11:45.164Z,17.37
2018-01-03T03:14:13.431Z,11.60
2018-01-03T03:16:41.667Z,14.20
2018-01-03T03:19:09.897Z,22.23
2018-01-03T03:21:38.172Z,13.73
2018-01-03T03:24:06.428Z,11.80
2018-01-03T03:26:36.069Z,11.00
2018-01-03T03:29:04.281Z,12.60
2018-01-03T03:31:32.521Z,8.37
2018-01-03T03:34:00.733Z,5.90
2018-01-03T03:36:28.992Z,6.30
2018-01-03T03:38:58.585Z,7.17
2018-01-03T03:41:27.444Z,5.27
2018-01-03T03:43:57.068Z,5.10
2018-01-03T03:46:26.519Z,4.27
2018-01-03T03:48:55.022Z,4.20
2018-01-03T03:51:24.654Z,3.30
2018-01-03T03:53:53.175Z,3.90
2018-01-03T03:56:21.400Z,2.50
2018-01-03T03:58:49.656Z,2.80
2018-01-03T04:01:19.396Z,1.87
2018-01-03T04:03:48.996Z,2.50
2018-01-03T04:06:17.524Z,2.90
2018-01-03T04:08:45.739Z,2.03
2018-01-03T04:11:14.005Z,1.90
2018-01-03T04:13:42.624Z,1.90
2018-01-03T04:16:10.876Z,1.70
2018-01-03T04:18:40.492Z,3.70
2018-01-03T04:21:09.001Z,4.13
2018-01-03T04:23:37.242Z,6.73
2018-01-03T04:26:06.868Z,4.67
2018-01-03T04:28:35.008Z,7.43
2018-01-03T04:31:04.828Z,9.10
2018-01-03T04:33:33.163Z,9.90
2018-01-03T04:36:01.396Z,8.60
2018-01-03T04:38:29.628Z,7.27
2018-01-03T04:40:57.916Z,4.67
2018-01-03T04:43:27.521Z,2.77
2018-01-03T04:45:56.004Z,2.40
2018-01-03T04:48:25.768Z,1.43
2018-01-03T04:50:53.997Z,1.80
2018-01-03T04:53:22.259Z,1.60
2018-01-03T04:55:51.906Z,1.60
2018-01-03T04:58:20.768Z,1.50
2018-01-03T05:00:49.008Z,1.30
2018-01-03T05:03:17.255Z,1.77
2018-01-03T05:05:45.476Z,1.73
2018-01-03T05:08:14.468Z,1.40
2018-01-03T05:10:42.740Z,1.53
2018-01-03T05:13:10.960Z,1.40
2018-01-03T05:15:39.196Z,1.80
2018-01-03T05:18:07.481Z,1.97
2018-01-03T05:20:35.677Z,2.30
2018-01-03T05:23:03.897Z,2.20
2018-01-03T05:25:32.148Z,2.10
2018-01-03T05:28:01.723Z,2.80
2018-01-03T05:30:29.824Z,3.00
2018-01-03T05:32:58.124Z,2.70
2018-01-03T05:35:26.344Z,3.37
2018-01-03T05:37:54.587Z,3.00
2018-01-03T05:40:24.368Z,3.27
2018-01-03T05:42:52.993Z,4.20
2018-01-03T05:45:21.219Z,3.10
2018-01-03T05:47:50.244Z,3.30
2018-01-03T05:50:19.240Z,3.33
2018-01-03T05:52:48.232Z,2.33
2018-01-03T05:55:17.838Z,2.03
2018-01-03T05:57:46.716Z,1.80
2018-01-03T06:00:14.944Z,2.00
2018-01-03T06:02:43.225Z,1.90
2018-01-03T06:05:11.477Z,1.70
2018-01-03T06:07:39.728Z,2.17
2018-01-03T06:10:09.162Z,1.93
2018-01-03T06:12:38.206Z,2.47
2018-01-03T06:15:06.429Z,3.37
2018-01-03T06:17:34.704Z,2.37
2018-01-03T06:20:04.441Z,2.37
2018-01-03T06:22:32.660Z,2.53
2018-01-03T06:25:01.393Z,2.70
2018-01-03T06:27:30.016Z,3.13
2018-01-03T06:29:58.264Z,2.90
2018-01-03T06:32:27.332Z,2.60
2018-01-03T06:34:56.946Z,4.10
2018-01-03T06:37:26.565Z,3.97
2018-01-03T06:39:56.224Z,4.60
2018-01-03T06:42:25.675Z,4.10
2018-01-03T06:44:55.140Z,3.80
2018-01-03T06:47:24.804Z,5.30
2018-01-03T06:49:53.054Z,6.27
2018-01-03T06:52:22.044Z,5.00
2018-01-03T06:54:50.320Z,7.00
2018-01-03T06:57:18.551Z,6.93
2018-01-03T06:59:47.944Z,8.40
2018-01-03T07:02:16.216Z,9.17
2018-01-03T07:04:44.457Z,10.50
2018-01-03T07:07:12.714Z,12.30
2018-01-03T07:09:42.343Z,1.53
2018-01-03T07:12:11.962Z,1.63
2018-01-03T07:14:41.557Z,1.23
2018-01-03T07:17:10.124Z,1.90
2018-01-03T07:19:38.345Z,4.50
2018-01-03T07:22:06.568Z,7.63
2018-01-03T07:24:34.859Z,6.90
2018-01-03T07:27:03.099Z,3.90
2018-01-03T07:29:31.324Z,5.97
2018-01-03T07:32:01.224Z,8.20
2018-01-03T07:34:29.476Z,5.00
2018-01-03T07:36:58.126Z,4.37
2018-01-03T07:39:27.817Z,7.33
2018-01-03T07:41:56.727Z,6.83
2018-01-03T07:44:26.082Z,6.70
2018-01-03T07:46:54.348Z,3.83
2018-01-03T07:49:23.941Z,4.33
2018-01-03T07:51:52.832Z,4.17
2018-01-03T07:54:21.855Z,3.73
2018-01-03T07:56:50.081Z,4.87
2018-01-03T07:59:18.335Z,6.90
2018-01-03T08:01:46.620Z,7.97
2018-01-03T08:04:16.360Z,7.00
2018-01-03T08:06:44.610Z,4.87
2018-01-03T08:09:12.899Z,3.80
2018-01-03T08:11:41.151Z,5.33
2018-01-03T08:14:09.406Z,4.53
2018-01-03T08:16:37.673Z,5.10
2018-01-03T08:19:05.905Z,6.43
2018-01-03T08:21:35.488Z,4.97
2018-01-03T08:24:04.999Z,9.93
2018-01-03T08:26:33.107Z,7.70
2018-01-03T08:29:02.105Z,6.10
2018-01-03T08:31:31.531Z,7.60
2018-01-03T08:33:59.768Z,3.27
2018-01-03T08:36:28.779Z,5.70
2018-01-03T08:38:57.857Z,5.80
2018-01-03T08:41:26.089Z,6.50
2018-01-03T08:43:54.316Z,4.73
2018-01-03T08:46:22.600Z,5.80
2018-01-03T08:48:50.833Z,5.17
2018-01-03T08:51:19.080Z,5.13
2018-01-03T08:53:47.340Z,5.93
2018-01-03T08:56:15.573Z,4.70
2018-01-03T08:58:45.164Z,5.33
2018-01-03T09:01:14.691Z,5.67
2018-01-03T09:03:43.594Z,4.20
2018-01-03T09:06:11.844Z,4.20
2018-01-03T09:08:40.554Z,4.40
2018-01-03T09:11:10.291Z,3.87
2018-01-03T09:13:38.521Z,4.30
2018-01-03T09:16:06.801Z,4.80
2018-01-03T09:18:35.788Z,6.30
2018-01-03T09:21:04.017Z,4.50
2018-01-03T09:23:32.576Z,5.50
2018-01-03T09:26:01.943Z,4.50
2018-01-03T09:28:30.192Z,5.00
2018-01-03T09:30:58.903Z,4.77
2018-01-03T09:33:27.127Z,5.80
2018-01-03T09:35:55.800Z,5.20
2018-01-03T09:38:25.595Z,5.57
2018-01-03T09:40:53.828Z,6.63
2018-01-03T09:43:23.196Z,8.30
2018-01-03T09:45:52.838Z,9.30
2018-01-03T09:48:21.727Z,8.00
2018-01-03T09:50:49.957Z,6.90
2018-01-03T09:53:18.243Z,6.83
2018-01-03T09:55:47.608Z,9.53
2018-01-03T09:58:15.863Z,6.80
2018-01-03T10:00:45.650Z,6.37
2018-01-03T10:03:13.766Z,7.30
2018-01-03T10:05:42.005Z,7.50
2018-01-03T10:08:11.655Z,6.27
2018-01-03T10:10:40.173Z,6.70
2018-01-03T10:13:08.440Z,4.57
2018-01-03T10:15:38.228Z,5.33
2018-01-03T10:18:07.596Z,4.73
2018-01-03T10:20:36.619Z,5.97
2018-01-03T10:23:06.412Z,6.40
2018-01-03T10:25:36.029Z,4.60
2018-01-03T10:28:05.043Z,4.00
2018-01-03T10:30:34.960Z,3.90
2018-01-03T10:33:03.831Z,4.00
2018-01-03T10:35:32.084Z,4.60
2018-01-03T10:38:01.704Z,5.30
2018-01-03T10:40:31.164Z,6.13
2018-01-03T10:43:00.779Z,5.83
2018-01-03T10:45:29.840Z,5.20
2018-01-03T10:47:58.093Z,4.57
2018-01-03T10:50:27.707Z,4.33
2018-01-03T10:52:56.043Z,3.80
2018-01-03T10:55:24.281Z,4.80
2018-01-03T10:57:52.508Z,4.73
2018-01-03T11:00:20.788Z,6.80
2018-01-03T11:02:49.020Z,5.43
2018-01-03T11:05:17.272Z,6.37
2018-01-03T11:07:45.552Z,5.20
2018-01-03T11:10:15.288Z,6.63
2018-01-03T11:12:43.525Z,6.00
2018-01-03T11:15:11.820Z,5.77
2018-01-03T11:17:40.048Z,7.03
2018-01-03T11:20:09.408Z,5.40
2018-01-03T11:22:38.445Z,6.90
2018-01-03T11:25:07.459Z,7.27
2018-01-03T11:27:37.045Z,8.83
2018-01-03T11:30:06.000Z,6.40
2018-01-03T11:32:34.208Z,6.93
2018-01-03T11:35:02.476Z,6.97
2018-01-03T11:37:30.754Z,5.33
2018-01-03T11:39:59.711Z,4.93
2018-01-03T11:42:28.352Z,5.77
2018-01-03T11:44:56.633Z,5.20
2018-01-03T11:47:26.215Z,9.00
2018-01-03T11:49:55.096Z,5.70
2018-01-03T11:52:23.356Z,7.07
2018-01-03T11:54:52.972Z,4.67
2018-01-03T11:57:21.844Z,5.60
2018-01-03T11:59:51.007Z,6.63
2018-01-03T12:02:19.254Z,5.40
2018-01-03T12:04:48.273Z,6.80
2018-01-03T12:07:17.339Z,4.43
2018-01-03T12:09:45.572Z,7.63
2018-01-03T12:12:13.820Z,6.33
2018-01-03T12:14:44.230Z,5.87
2018-01-03T12:17:12.464Z,5.50
2018-01-03T12:19:41.828Z,7.57
2018-01-03T12:22:10.914Z,4.70
2018-01-03T12:24:40.304Z,5.67
2018-01-03T12:27:08.524Z,6.50
2018-01-03T12:29:38.147Z,7.20
2018-01-03T12:32:07.783Z,6.00
2018-01-03T12:34:37.521Z,7.13
2018-01-03T12:37:06.568Z,7.60
2018-01-03T12:39:35.936Z,6.10
2018-01-03T12:42:05.676Z,6.10
2018-01-03T12:44:33.948Z,7.93
2018-01-03T12:47:02.197Z,5.63
2018-01-03T12:49:31.231Z,6.27
2018-01-03T12:52:00.850Z,5.77
2018-01-03T12:54:29.377Z,7.13
2018-01-03T12:56:57.643Z,7.10
2018-01-03T12:59:27.103Z,5.93
2018-01-03T13:01:55.732Z,6.90
2018-01-03T13:04:23.964Z,7.20
2018-01-03T13:06:52.251Z,7.43
2018-01-03T13:09:20.480Z,5.50
2018-01-03T13:11:48.745Z,7.70
2018-01-03T13:14:17.032Z,5.37
2018-01-03T13:16:45.262Z,7.10
2018-01-03T13:19:13.509Z,7.23
2018-01-03T13:21:43.146Z,7.10
2018-01-03T13:24:11.648Z,5.57
2018-01-03T13:26:40.644Z,4.20
2018-01-03T13:29:08.930Z,6.07
2018-01-03T13:31:37.163Z,6.43
2018-01-03T13:34:05.391Z,6.20
2018-01-03T13:36:33.687Z,4.33
2018-01-03T13:39:03.299Z,4.27
2018-01-03T13:41:31.420Z,4.13
2018-01-03T13:44:00.506Z,3.67
2018-01-03T13:46:28.764Z,4.63
2018-01-03T13:48:57.011Z,5.60
2018-01-03T13:51:26.445Z,6.10
2018-01-03T13:53:54.661Z,5.53
2018-01-03T13:56:24.246Z,4.13
2018-01-03T13:58:53.152Z,5.20
2018-01-03T14:01:21.387Z,4.53
2018-01-03T14:03:50.407Z,4.60
2018-01-03T14:06:20.498Z,5.27
2018-01-03T14:08:48.636Z,6.03
2018-01-03T14:11:18.247Z,6.90
2018-01-03T14:13:47.160Z,5.73
2018-01-03T14:16:16.910Z,4.00
2018-01-03T14:18:46.500Z,4.93
2018-01-03T14:21:15.980Z,4.80
2018-01-03T14:23:45.619Z,4.93
2018-01-03T14:26:13.867Z,5.33
2018-01-03T14:28:42.543Z,3.70
2018-01-03T14:31:10.773Z,4.60
2018-01-03T14:33:40.140Z,5.10
2018-01-03T14:36:08.404Z,4.43
2018-01-03T14:38:37.985Z,4.03
2018-01-03T14:41:06.860Z,3.87
2018-01-03T14:43:36.487Z,3.90
2018-01-03T14:46:04.617Z,3.53
2018-01-03T14:48:33.646Z,3.83
2018-01-03T14:51:03.271Z,3.53
2018-01-03T14:53:32.975Z,3.80
2018-01-03T14:56:01.219Z,5.37
2018-01-03T14:58:30.633Z,6.00
2018-01-03T15:00:59.668Z,3.57
2018-01-03T15:03:27.894Z,3.50
2018-01-03T15:05:57.537Z,4.87
2018-01-03T15:08:25.635Z,5.27
2018-01-03T15:10:54.678Z,6.50
2018-01-03T15:13:24.060Z,4.67
2018-01-03T15:15:52.356Z,3.97
2018-01-03T15:18:20.585Z,3.80
2018-01-03T15:20:48.900Z,4.80
2018-01-03T15:23:18.512Z,4.13
2018-01-03T15:25:47.021Z,3.90
2018-01-03T15:28:15.282Z,4.67
2018-01-03T15:30:43.551Z,4.40
2018-01-03T15:33:12.536Z,3.83
2018-01-03T15:35:40.824Z,4.33
2018-01-03T15:38:09.076Z,4.57
2018-01-03T15:40:37.320Z,4.13
2018-01-03T15:43:05.580Z,4.87
2018-01-03T15:45:33.867Z,4.87
2018-01-03T15:48:02.099Z,5.30
2018-01-03T15:50:30.417Z,8.20
2018-01-03T15:52:59.481Z,5.80
2018-01-03T15:55:27.763Z,7.50
2018-01-03T15:57:56.032Z,5.40
2018-01-03T16:00:24.256Z,5.60
2018-01-03T16:02:52.533Z,7.83
2018-01-03T16:05:20.791Z,4.30
2018-01-03T16:07:50.182Z,6.10
2018-01-03T16:10:19.321Z,7.40
2018-01-03T16:12:48.972Z,4.83
2018-01-03T16:15:18.661Z,8.50
2018-01-03T16:17:46.878Z,7.30
2018-01-03T16:20:15.147Z,6.20
2018-01-03T16:22:44.902Z,4.10
2018-01-03T16:25:13.140Z,5.93
2018-01-03T16:27:42.977Z,5.87
2018-01-03T16:30:11.196Z,7.43
2018-01-03T16:32:40.188Z,6.97
2018-01-03T16:35:08.451Z,4.30
2018-01-03T16:37:37.905Z,4.30
2018-01-03T16:40:06.508Z,6.27
2018-01-03T16:42:34.865Z,6.70
2018-01-03T16:45:04.632Z,6.20
2018-01-03T16:47:32.932Z,6.80
2018-01-03T16:50:01.312Z,6.60
2018-01-03T16:52:35.241Z,6.00
2018-01-03T16:55:04.338Z,7.80
2018-01-03T16:57:32.559Z,6.10
2018-01-03T17:00:02.316Z,5.10
2018-01-03T17:02:30.642Z,5.97
2018-01-03T17:04:58.961Z,5.03
2018-01-03T17:07:27.237Z,5.80
2018-01-03T17:09:55.661Z,4.63
2018-01-03T17:12:23.908Z,6.07
2018-01-03T17:14:53.271Z,7.00
2018-01-03T17:17:21.582Z,5.73
2018-01-03T17:19:49.829Z,5.30
2018-01-03T17:22:18.475Z,7.00
2018-01-03T17:24:48.095Z,7.10
2018-01-03T17:27:16.758Z,5.93
2018-01-03T17:29:46.550Z,5.37
2018-01-03T17:32:14.920Z,5.93
2018-01-03T17:34:44.000Z,6.30
2018-01-03T17:37:12.367Z,6.97
2018-01-03T17:39:40.718Z,5.57
2018-01-03T17:42:08.955Z,6.83
2018-01-03T17:44:38.395Z,7.43
2018-01-03T17:47:07.053Z,7.13
2018-01-03T17:49:35.375Z,5.20
2018-01-03T17:52:03.831Z,5.80
2018-01-03T17:54:33.522Z,5.50
2018-01-03T17:57:01.667Z,5.37
2018-01-03T17:59:30.131Z,6.70
2018-01-03T18:01:58.460Z,6.60
2018-01-03T18:04:28.155Z,6.43
2018-01-03T18:06:56.367Z,7.93
2018-01-03T18:09:26.041Z,6.43
2018-01-03T18:11:54.677Z,6.47
2018-01-03T18:14:23.739Z,7.90
2018-01-03T18:16:52.114Z,7.07
2018-01-03T18:19:21.241Z,7.90
2018-01-03T18:21:49.574Z,10.40
2018-01-03T18:24:18.292Z,9.73
2018-01-03T18:26:46.680Z,9.33
2018-01-03T18:29:15.199Z,10.07
2018-01-03T18:31:44.715Z,7.30
2018-01-03T18:34:12.982Z,3.33
2018-01-03T18:36:41.251Z,3.57
2018-01-03T18:39:10.036Z,5.10
2018-01-03T18:41:38.388Z,4.10
2018-01-03T18:44:08.030Z,2.83
2018-01-03T18:46:36.285Z,3.63
2018-01-03T18:49:06.103Z,1.73
2018-01-03T18:51:35.741Z,6.50
2018-01-03T18:54:04.753Z,7.97
2018-01-03T18:56:33.791Z,10.13
2018-01-03T18:59:03.437Z,8.27
2018-01-03T19:01:32.047Z,7.60
2018-01-03T19:04:00.374Z,8.20
2018-01-03T19:06:30.020Z,8.00
2018-01-03T19:08:58.246Z,8.53
2018-01-03T19:11:26.539Z,9.27
2018-01-03T19:13:55.568Z,9.43
2018-01-03T19:16:24.636Z,9.90
2018-01-03T19:18:54.290Z,10.10
2018-01-03T19:21:23.204Z,10.07
2018-01-03T19:23:51.911Z,9.57
2018-01-03T19:26:21.702Z,10.53
2018-01-03T19:28:49.972Z,8.10
2018-01-03T19:31:18.289Z,6.63
2018-01-03T19:33:46.676Z,7.03
2018-01-03T19:36:16.415Z,5.73
2018-01-03T19:38:44.754Z,4.33
2018-01-03T19:41:14.406Z,5.20
2018-01-03T19:43:43.687Z,4.40
2018-01-03T19:46:12.041Z,4.57
2018-01-03T19:48:40.291Z,4.70
2018-01-03T19:51:08.573Z,3.87
2018-01-03T19:53:37.768Z,4.73
2018-01-03T19:56:07.426Z,6.80
2018-01-03T19:58:36.756Z,6.10
2018-01-03T20:01:05.109Z,5.73
2018-01-03T20:03:33.379Z,7.73
2018-01-03T20:06:01.660Z,8.50
2018-01-03T20:08:30.040Z,7.30
2018-01-03T20:10:59.681Z,7.57
2018-01-03T20:13:27.848Z,7.87
2018-01-03T20:15:57.548Z,8.63
2018-01-03T20:18:28.036Z,8.90
2018-01-03T20:20:56.567Z,9.93
2018-01-03T20:23:25.676Z,10.00
2018-01-03T20:25:55.033Z,11.63
2018-01-03T20:28:23.700Z,8.37
2018-01-03T20:30:51.966Z,12.97
2018-01-03T20:33:20.313Z,8.90
2018-01-03T20:35:48.598Z,10.20
2018-01-03T20:38:18.046Z,11.07
2018-01-03T20:40:46.294Z,10.03
2018-01-03T20:43:14.558Z,9.03
2018-01-03T20:45:43.671Z,10.00
2018-01-03T20:48:13.081Z,9.50
2018-01-03T20:50:41.355Z,8.27
2018-01-03T20:53:09.758Z,7.13
2018-01-03T20:55:38.028Z,9.07
2018-01-03T20:58:07.046Z,9.60
2018-01-03T21:00:36.765Z,8.90
2018-01-03T21:03:05.287Z,7.37
2018-01-03T21:05:34.950Z,8.50
2018-01-03T21:08:03.572Z,8.23
2018-01-03T21:10:33.228Z,6.47
2018-01-03T21:13:01.818Z,8.30
2018-01-03T21:15:31.566Z,8.63
2018-01-03T21:18:00.512Z,8.17
2018-01-03T21:20:28.802Z,7.97
2018-01-03T21:22:57.175Z,9.13
2018-01-03T21:25:26.796Z,8.13
2018-01-03T21:27:56.300Z,6.20
2018-01-03T21:30:25.827Z,8.30
2018-01-03T21:32:55.288Z,7.60
2018-01-03T21:35:23.504Z,7.97
2018-01-03T21:37:51.847Z,9.43
2018-01-03T21:40:21.453Z,9.13
2018-01-03T21:42:51.130Z,9.03
2018-01-03T21:45:20.220Z,8.43
2018-01-03T21:47:48.888Z,9.60
2018-01-03T21:50:18.531Z,8.60
2018-01-03T21:52:48.390Z,8.27
2018-01-03T21:55:16.529Z,10.23
2018-01-03T21:57:45.963Z,9.63
2018-01-03T22:00:16.639Z,7.90
2018-01-03T22:02:45.924Z,9.50
2018-01-03T22:05:14.211Z,8.23
2018-01-03T22:07:42.530Z,10.17
2018-01-03T22:10:12.142Z,10.07
2018-01-03T22:12:41.081Z,9.23
2018-01-03T22:15:09.380Z,10.43
2018-01-03T22:17:37.668Z,7.30
2018-01-03T22:20:07.284Z,7.80
2018-01-03T22:22:35.873Z,7.63
2018-01-03T22:25:05.490Z,7.87
2018-01-03T22:27:35.182Z,9.07
2018-01-03T22:30:03.536Z,8.60
2018-01-03T22:32:33.184Z,8.80
2018-01-03T22:35:01.748Z,8.90
2018-01-03T22:37:30.081Z,7.97
2018-01-03T22:39:58.689Z,8.93
2018-01-03T22:42:27.725Z,11.10
2018-01-03T22:44:56.094Z,9.30
2018-01-03T22:47:24.319Z,10.10
2018-01-03T22:49:52.983Z,8.63
2018-01-03T22:52:21.306Z,8.10
2018-01-03T22:54:51.083Z,8.87
2018-01-03T22:57:19.362Z,7.27
2018-01-03T22:59:49.051Z,7.73
2018-01-03T23:02:17.618Z,9.23
2018-01-03T23:04:47.032Z,8.70
2018-01-03T23:07:16.104Z,8.43
2018-01-03T23:09:44.381Z,8.93
2018-01-03T23:12:13.410Z,7.43
2018-01-03T23:14:41.751Z,8.43
2018-01-03T23:17:10.021Z,8.90
2018-01-03T23:19:38.292Z,6.80
2018-01-03T23:22:06.766Z,9.33
2018-01-03T23:24:35.802Z,9.37
2018-01-03T23:27:04.489Z,7.63
2018-01-03T23:29:32.803Z,8.37
2018-01-03T23:32:02.458Z,7.20
2018-01-03T23:34:32.386Z,8.70
2018-01-03T23:37:01.454Z,7.33
2018-01-03T23:39:29.762Z,9.23
2018-01-03T23:41:59.186Z,6.93
2018-01-03T23:44:27.471Z,8.70
2018-01-03T23:46:55.732Z,7.93
2018-01-03T23:49:25.002Z,7.10
2018-01-03T23:51:54.575Z,9.00
2018-01-03T23:54:23.118Z,7.00
2018-01-03T23:56:51.437Z,10.40
2018-01-03T23:59:19.710Z,8.90
